TimeEST,TemperatureF,Dew PointF,Humidity,Sea Level PressureIn,VisibilityMPH,Wind Direction,Wind SpeedMPH,Gust SpeedMPH,PrecipitationIn,Events,Conditions,WindDirDegrees,DateUTC
12:15 AM,48.2,48.2,100,30.08,10.0,West,4.6,-,0.00,,Clear,270,2013-02-04 05:15:00
12:35 AM,48.2,48.2,100,30.08,10.0,WSW,3.5,-,0.00,,Clear,250,2013-02-04 05:35:00
12:55 AM,46.4,46.4,100,30.09,10.0,WSW,3.5,-,0.00,,Clear,240,2013-02-04 05:55:00
1:15 AM,44.6,44.6,100,30.09,10.0,WSW,3.5,-,0.00,,Clear,250,2013-02-04 06:15:00
1:35 AM,42.8,42.8,100,30.09,10.0,WSW,3.5,-,0.00,,Clear,250,2013-02-04 06:35:00
1:55 AM,42.8,42.8,100,30.09,10.0,West,3.5,-,0.00,,Clear,260,2013-02-04 06:55:00
2:15 AM,41.0,41.0,100,30.09,10.0,WSW,3.5,-,0.00,,Clear,250,2013-02-04 07:15:00
2:35 AM,39.2,39.2,100,30.08,10.0,Calm,Calm,-,0.00,,Clear,0,2013-02-04 07:35:00
2:55 AM,39.2,39.2,100,30.08,10.0,Calm,Calm,-,0.00,,Clear,0,2013-02-04 07:55:00
3:15 AM,37.4,37.4,100,30.07,10.0,Calm,Calm,-,0.00,,Clear,0,2013-02-04 08:15:00
3:35 AM,37.4,37.4,100,30.08,10.0,Calm,Calm,-,0.00,,Clear,0,2013-02-04 08:35:00
3:55 AM,37.4,37.4,100,30.07,10.0,WNW,3.5,-,0.00,,Clear,290,2013-02-04 08:55:00
4:15 AM,37.4,37.4,100,30.08,10.0,West,3.5,-,0.00,,Clear,260,2013-02-04 09:15:00
6:50 AM,33.8,33.8,100,30.12,10.0,SSW,3.5,-,N/A,,Clear,210,2013-02-04 11:50:00
7:50 AM,37.4,32.0,81,30.15,10.0,SSW,3.5,-,N/A,,Scattered Clouds,210,2013-02-04 12:50:00
8:50 AM,44.6,33.8,66,30.17,10.0,Calm,Calm,-,N/A,,Scattered Clouds,0,2013-02-04 13:50:00
9:55 AM,50.0,33.8,54,30.16,10.0,North,5.8,-,N/A,,Partly Cloudy,360,2013-02-04 14:55:00
10:50 AM,48.2,32.0,54,30.15,10.0,NE,8.1,-,N/A,,Mostly Cloudy,40,2013-02-04 15:50:00
11:50 AM,50.0,33.8,54,30.15,10.0,ENE,3.5,-,N/A,,Overcast,60,2013-02-04 16:50:00
1:50 PM,51.8,30.2,44,30.11,10.0,NNE,4.6,-,N/A,,Mostly Cloudy,20,2013-02-04 18:50:00
2:50 PM,53.6,32.0,44,30.11,10.0,Variable,3.5,-,N/A,,Mostly Cloudy,0,2013-02-04 19:50:00
3:50 PM,51.8,30.2,44,30.11,10.0,Variable,3.5,-,N/A,,Mostly Cloudy,0,2013-02-04 20:50:00
5:50 PM,48.2,37.4,66,30.10,10.0,Calm,Calm,-,N/A,,Mostly Cloudy,0,2013-02-04 22:50:00
6:50 PM,46.4,39.2,76,30.09,10.0,Calm,Calm,-,N/A,,Clear,0,2013-02-04 23:50:00
7:50 PM,44.6,39.2,81,30.10,10.0,Calm,Calm,-,N/A,,Clear,0,2013-02-05 00:50:00
8:15 PM,44.6,44.6,100,30.11,10.0,Calm,Calm,-,0.00,,Clear,0,2013-02-05 01:15:00
8:35 PM,42.8,42.8,100,30.10,10.0,Calm,Calm,-,0.00,,Clear,0,2013-02-05 01:35:00
8:55 PM,42.8,42.8,100,30.10,10.0,Calm,Calm,-,0.00,,Clear,0,2013-02-05 01:55:00
9:15 PM,42.8,42.8,100,30.10,10.0,Calm,Calm,-,0.00,,Clear,0,2013-02-05 02:15:00
9:35 PM,41.0,41.0,100,30.10,10.0,Calm,Calm,-,0.00,,Clear,0,2013-02-05 02:35:00
9:55 PM,42.8,42.8,100,30.10,10.0,Calm,Calm,-,0.00,,Clear,0,2013-02-05 02:55:00
10:15 PM,42.8,42.8,100,30.11,10.0,Calm,Calm,-,0.00,,Clear,0,2013-02-05 03:15:00
10:35 PM,42.8,42.8,100,30.11,10.0,SSW,3.5,-,0.00,,Clear,200,2013-02-05 03:35:00
10:55 PM,42.8,42.8,100,30.10,10.0,Calm,Calm,-,0.00,,Clear,0,2013-02-05 03:55:00
11:15 PM,42.8,42.8,100,30.10,10.0,Calm,Calm,-,0.00,,Clear,0,2013-02-05 04:15:00
11:35 PM,42.8,42.8,100,30.10,10.0,Calm,Calm,-,0.00,,Clear,0,2013-02-05 04:35:00
11:55 PM,41.0,41.0,100,30.09,10.0,Calm,Calm,-,0.00,,Clear,0,2013-02-05 04:55:00